Time;durP1;ratioP1;P1;durP2;ratioP2;P2;SDS_P1;SDS_P2;PMS_P1;PMS_P2;Temp;Humidity;BMP_temperature;BMP_pressure;BME280_temperature;BME280_humidity;BME280_pressure;Samples;Min_cycle;Max_cycle;Signal;HPM_P1;HPM_P2
2022/01/08 00:02:03;;;;;;;119.13;58.90;;;;;;;;;;5042873;28;20187;-64
2022/01/08 00:04:29;;;;;;;33.27;16.60;;;;;;;;;;5042788;28;20191;-65
2022/01/08 00:06:56;;;;;;;21.30;13.43;;;;;;;;;;5041170;28;20422;-65
2022/01/08 00:09:22;;;;;;;11.83;7.57;;;;;;;;;;5042883;28;20414;-65
2022/01/08 00:11:48;;;;;;;13.43;7.43;;;;;;;;;;5042752;28;20436;-64
2022/01/08 00:14:15;;;;;;;8.77;6.40;;;;;;;;;;5042808;28;20276;-66
2022/01/08 00:16:41;;;;;;;9.43;6.00;;;;;;;;;;5041821;28;20183;-65
2022/01/08 00:19:07;;;;;;;12.00;7.03;;;;;;;;;;5042324;28;20410;-66
2022/01/08 00:21:33;;;;;;;10.17;6.93;;;;;;;;;;5042835;28;20198;-64
2022/01/08 00:23:59;;;;;;;10.00;7.13;;;;;;;;;;5042479;28;20461;-65
2022/01/08 00:26:25;;;;;;;11.23;7.23;;;;;;;;;;5042486;28;20403;-71
2022/01/08 00:28:51;;;;;;;11.63;7.03;;;;;;;;;;5040906;28;20824;-65
2022/01/08 00:31:17;;;;;;;18.17;9.03;;;;;;;;;;5041057;28;20269;-64
2022/01/08 00:33:43;;;;;;;54.07;20.67;;;;;;;;;;5042006;28;20713;-65
2022/01/08 00:36:10;;;;;;;47.93;22.60;;;;;;;;;;5041671;28;20407;-71
2022/01/08 00:38:36;;;;;;;36.80;16.73;;;;;;;;;;5041877;28;20179;-65
2022/01/08 00:41:02;;;;;;;20.73;9.90;;;;;;;;;;5042873;28;20418;-64
2022/01/08 00:43:28;;;;;;;20.00;10.30;;;;;;;;;;5042705;28;20469;-65
2022/01/08 00:45:54;;;;;;;15.40;9.07;;;;;;;;;;5041942;28;20410;-66
2022/01/08 00:48:20;;;;;;;14.17;9.10;;;;;;;;;;5042248;28;20413;-65
2022/01/08 00:50:46;;;;;;;11.63;8.40;;;;;;;;;;5041381;28;20179;-64
2022/01/08 00:53:12;;;;;;;14.17;8.33;;;;;;;;;;5040952;28;20433;-64
2022/01/08 00:55:37;;;;;;;12.10;8.40;;;;;;;;;;5040927;28;20639;-66
2022/01/08 00:58:03;;;;;;;29.80;13.07;;;;;;;;;;5041009;28;20647;-65
2022/01/08 01:00:29;;;;;;;76.40;26.20;;;;;;;;;;5040258;28;20187;-64
2022/01/08 01:02:55;;;;;;;99.70;35.63;;;;;;;;;;5040512;28;20240;-66
2022/01/08 01:05:21;;;;;;;216.23;61.97;;;;;;;;;;5039390;28;20210;-66
2022/01/08 01:07:47;;;;;;;309.90;91.03;;;;;;;;;;5039168;28;20182;-66
2022/01/08 01:10:15;;;;;;;101.67;35.87;;;;;;;;;;5040099;28;20203;-64
2022/01/08 01:12:41;;;;;;;103.77;38.47;;;;;;;;;;5039740;28;20453;-64
2022/01/08 01:15:11;;;;;;;106.20;38.40;;;;;;;;;;5039036;28;20509;-65
2022/01/08 01:17:37;;;;;;;46.23;20.07;;;;;;;;;;5040862;28;20670;-65
2022/01/08 01:20:04;;;;;;;46.00;20.70;;;;;;;;;;5038881;28;20418;-65
2022/01/08 01:22:41;;;;;;;39.17;19.80;;;;;;;;;;5040698;28;20226;-63
2022/01/08 01:25:09;;;;;;;45.53;21.00;;;;;;;;;;5038200;28;20390;-65
2022/01/08 01:27:56;;;;;;;42.97;19.10;;;;;;;;;;5037999;28;20422;-68
2022/01/08 01:49:15;;;;;;;24.40;13.83;;;;;;;;;;5038707;28;20409;-64
2022/01/08 01:51:41;;;;;;;15.77;12.23;;;;;;;;;;5037350;28;20430;-65
2022/01/08 01:54:07;;;;;;;23.57;12.63;;;;;;;;;;5038471;28;20426;-67
2022/01/08 01:56:33;;;;;;;23.63;13.17;;;;;;;;;;5038026;28;20956;-65
2022/01/08 01:58:59;;;;;;;20.03;12.33;;;;;;;;;;5036534;28;20704;-65
2022/01/08 02:01:25;;;;;;;23.03;14.13;;;;;;;;;;5038427;28;20417;-65
2022/01/08 02:03:51;;;;;;;18.60;13.27;;;;;;;;;;5037231;28;20552;-64
2022/01/08 02:06:17;;;;;;;19.03;13.63;;;;;;;;;;5037461;28;20639;-66
2022/01/08 02:08:43;;;;;;;19.70;13.83;;;;;;;;;;5036552;28;20527;-66
2022/01/08 02:11:09;;;;;;;23.30;14.10;;;;;;;;;;5037167;28;20417;-65
2022/01/08 02:13:36;;;;;;;22.03;14.53;;;;;;;;;;5036570;28;20276;-65
2022/01/08 02:16:04;;;;;;;22.20;14.20;;;;;;;;;;5036881;28;20410;-65
2022/01/08 02:18:30;;;;;;;19.20;13.53;;;;;;;;;;5037256;28;20414;-65
2022/01/08 02:20:57;;;;;;;21.97;13.27;;;;;;;;;;5035454;28;21067;-66
2022/01/08 02:23:23;;;;;;;22.47;13.57;;;;;;;;;;5037592;28;20965;-66
2022/01/08 02:25:50;;;;;;;26.17;14.77;;;;;;;;;;5037507;28;20467;-66
2022/01/08 02:28:16;;;;;;;21.33;15.00;;;;;;;;;;5036832;28;20411;-65
2022/01/08 02:30:43;;;;;;;24.83;15.27;;;;;;;;;;5036002;28;20781;-64
2022/01/08 02:33:09;;;;;;;20.23;13.97;;;;;;;;;;5036304;28;20438;-65
2022/01/08 02:35:35;;;;;;;24.30;14.50;;;;;;;;;;5036383;28;20425;-66
2022/01/08 02:38:01;;;;;;;24.13;13.63;;;;;;;;;;5038953;28;20211;-64
2022/01/08 02:40:27;;;;;;;24.93;15.10;;;;;;;;;;5035720;28;20418;-65
2022/01/08 02:43:00;;;;;;;27.40;15.77;;;;;;;;;;5035121;28;20477;-67
2022/01/08 02:45:27;;;;;;;29.63;15.37;;;;;;;;;;5036719;28;20416;-66
2022/01/08 02:47:54;;;;;;;28.27;16.47;;;;;;;;;;5036570;28;20851;-66
2022/01/08 02:50:20;;;;;;;23.60;15.63;;;;;;;;;;5035370;28;20475;-65
2022/01/08 02:52:47;;;;;;;29.60;15.83;;;;;;;;;;5035095;28;20429;-65
2022/01/08 02:55:16;;;;;;;24.07;15.57;;;;;;;;;;5036253;28;20423;-67
2022/01/08 02:57:42;;;;;;;33.97;16.70;;;;;;;;;;5036442;28;20410;-66
2022/01/08 03:00:09;;;;;;;28.63;16.97;;;;;;;;;;5037147;28;20410;-65
2022/01/08 03:02:40;;;;;;;29.20;15.90;;;;;;;;;;5034805;28;20572;-65
2022/01/08 03:05:07;;;;;;;24.73;16.03;;;;;;;;;;5036672;28;20426;-65
2022/01/08 03:07:33;;;;;;;30.67;16.97;;;;;;;;;;5036988;28;20981;-65
2022/01/08 03:09:59;;;;;;;31.43;17.80;;;;;;;;;;5035587;28;20907;-66
2022/01/08 03:12:26;;;;;;;38.23;18.57;;;;;;;;;;5035665;28;20433;-66
2022/01/08 03:14:52;;;;;;;35.93;19.07;;;;;;;;;;5037319;28;20255;-65
2022/01/08 03:17:18;;;;;;;38.50;19.33;;;;;;;;;;5036912;28;20451;-65
2022/01/08 03:19:45;;;;;;;35.43;19.13;;;;;;;;;;5036764;28;20433;-65
2022/01/08 03:22:11;;;;;;;34.37;20.40;;;;;;;;;;5036152;28;20559;-66
2022/01/08 03:24:39;;;;;;;36.17;19.90;;;;;;;;;;5036013;28;20442;-65
2022/01/08 03:27:05;;;;;;;34.17;20.57;;;;;;;;;;5037585;28;20446;-65
2022/01/08 03:29:31;;;;;;;37.53;20.60;;;;;;;;;;5036254;28;20410;-65
2022/01/08 03:31:57;;;;;;;35.90;20.27;;;;;;;;;;5037153;28;20406;-65
2022/01/08 03:34:23;;;;;;;40.80;20.93;;;;;;;;;;5036799;28;20440;-66
2022/01/08 03:36:49;;;;;;;41.07;21.37;;;;;;;;;;5035850;28;20429;-64
2022/01/08 03:39:16;;;;;;;42.60;23.30;;;;;;;;;;5036536;28;20187;-65
2022/01/08 03:41:42;;;;;;;40.93;22.57;;;;;;;;;;5035090;28;20406;-66
2022/01/08 03:44:08;;;;;;;46.27;22.63;;;;;;;;;;5033290;28;20468;-65
2022/01/08 03:46:36;;;;;;;38.97;22.87;;;;;;;;;;5033467;28;20460;-66
2022/01/08 03:49:22;;;;;;;44.53;24.00;;;;;;;;;;5031835;28;20777;-66
2022/01/08 03:51:49;;;;;;;46.20;23.67;;;;;;;;;;5033533;28;20904;-66
2022/01/08 03:54:15;;;;;;;46.43;24.47;;;;;;;;;;5034942;28;20523;-65
2022/01/08 03:56:41;;;;;;;41.37;24.93;;;;;;;;;;5037003;28;20406;-66
2022/01/08 03:59:07;;;;;;;45.10;25.63;;;;;;;;;;5036340;28;20505;-66
2022/01/08 04:01:33;;;;;;;41.53;24.67;;;;;;;;;;5036705;28;20244;-65
2022/01/08 04:03:59;;;;;;;47.07;25.93;;;;;;;;;;5077731;23;20689;-62
2022/01/08 04:06:25;;;;;;;47.87;25.23;;;;;;;;;;5056932;28;20549;-63
2022/01/08 04:08:56;;;;;;;48.33;26.43;;;;;;;;;;5072163;28;20702;-62
2022/01/08 04:11:23;;;;;;;46.73;25.33;;;;;;;;;;5056577;28;20166;-62
2022/01/08 04:13:49;;;;;;;48.37;26.47;;;;;;;;;;5056495;28;20428;-63
2022/01/08 04:16:20;;;;;;;56.43;28.17;;;;;;;;;;5055460;28;20478;-62
2022/01/08 04:18:45;;;;;;;43.43;26.17;;;;;;;;;;5056889;28;20398;-63
2022/01/08 04:21:58;;;;;;;51.93;28.50;;;;;;;;;;5056478;28;20425;-63
2022/01/08 04:24:08;;;;;;;52.93;26.57;;;;;;;;;;5056343;28;20223;-63
2022/01/08 04:26:34;;;;;;;46.27;26.77;;;;;;;;;;5056463;28;20893;-62
2022/01/08 04:29:00;;;;;;;56.90;27.67;;;;;;;;;;5056967;28;20418;-62
2022/01/08 04:31:27;;;;;;;43.97;27.33;;;;;;;;;;5056366;28;20174;-63
2022/01/08 04:33:53;;;;;;;53.83;27.87;;;;;;;;;;5054885;28;20202;-63
2022/01/08 04:36:19;;;;;;;46.97;28.17;;;;;;;;;;5054914;28;20417;-62
2022/01/08 04:38:45;;;;;;;58.23;29.03;;;;;;;;;;5056100;28;20492;-63
2022/01/08 04:41:11;;;;;;;58.37;29.60;;;;;;;;;;5056454;28;20466;-63
2022/01/08 04:43:42;;;;;;;54.83;29.13;;;;;;;;;;5054564;28;20518;-63
2022/01/08 04:46:08;;;;;;;48.97;28.10;;;;;;;;;;5055113;28;20905;-63
2022/01/08 04:48:34;;;;;;;48.87;29.70;;;;;;;;;;5054783;28;20414;-63
2022/01/08 04:51:00;;;;;;;57.37;29.57;;;;;;;;;;5055831;28;20217;-62
2022/01/08 04:53:26;;;;;;;49.00;27.43;;;;;;;;;;5054609;28;20819;-62
2022/01/08 04:55:52;;;;;;;52.43;28.20;;;;;;;;;;5054289;28;20232;-63
2022/01/08 04:58:18;;;;;;;51.77;28.00;;;;;;;;;;5054432;28;20496;-63
2022/01/08 05:00:44;;;;;;;49.53;29.60;;;;;;;;;;5055365;28;20186;-63
2022/01/08 05:03:10;;;;;;;51.83;29.87;;;;;;;;;;5055376;28;20225;-62
2022/01/08 05:05:36;;;;;;;44.80;28.07;;;;;;;;;;5054322;28;20171;-63
2022/01/08 05:08:02;;;;;;;50.27;27.53;;;;;;;;;;5055656;28;20645;-63
2022/01/08 05:10:33;;;;;;;54.00;27.63;;;;;;;;;;5055439;28;20405;-63
2022/01/08 05:13:03;;;;;;;56.50;26.90;;;;;;;;;;5053910;28;20206;-63
2022/01/08 05:15:29;;;;;;;46.00;29.13;;;;;;;;;;5055056;28;20853;-63
2022/01/08 05:17:55;;;;;;;52.37;26.37;;;;;;;;;;5055161;28;20463;-61
2022/01/08 05:20:22;;;;;;;54.70;27.27;;;;;;;;;;5053707;28;20429;-63
2022/01/08 05:22:51;;;;;;;52.53;28.27;;;;;;;;;;5053749;28;20979;-63
2022/01/08 05:25:18;;;;;;;49.33;27.50;;;;;;;;;;5055204;28;20412;-63
2022/01/08 05:27:45;;;;;;;47.80;27.43;;;;;;;;;;5054817;28;20413;-63
2022/01/08 05:30:12;;;;;;;45.30;27.00;;;;;;;;;;5055277;28;20412;-63
2022/01/08 05:32:38;;;;;;;55.23;27.33;;;;;;;;;;5053530;28;20449;-63
2022/01/08 05:35:05;;;;;;;46.13;27.10;;;;;;;;;;5055202;28;20417;-63
2022/01/08 05:37:31;;;;;;;44.33;26.93;;;;;;;;;;5053375;28;20799;-63
2022/01/08 05:39:57;;;;;;;52.87;26.87;;;;;;;;;;5055045;28;20467;-63
2022/01/08 05:42:23;;;;;;;46.70;26.50;;;;;;;;;;5054367;28;20437;-63
2022/01/08 05:44:49;;;;;;;52.47;27.60;;;;;;;;;;5053336;28;20177;-63
2022/01/08 05:47:15;;;;;;;43.40;27.07;;;;;;;;;;5054798;28;20411;-63
2022/01/08 05:49:41;;;;;;;50.47;26.70;;;;;;;;;;5055347;28;20409;-63
2022/01/08 05:52:07;;;;;;;43.23;25.57;;;;;;;;;;5055534;28;20416;-63
2022/01/08 05:54:34;;;;;;;46.30;26.13;;;;;;;;;;5063079;28;20485;-63
2022/01/08 05:57:00;;;;;;;50.57;26.97;;;;;;;;;;5064075;28;20415;-63
2022/01/08 05:59:27;;;;;;;53.63;26.87;;;;;;;;;;5063849;28;20418;-64
2022/01/08 06:01:56;;;;;;;50.83;27.50;;;;;;;;;;5061015;28;20408;-63
2022/01/08 06:04:22;;;;;;;47.70;26.57;;;;;;;;;;5058727;28;20475;-64
2022/01/08 06:06:48;;;;;;;49.10;27.83;;;;;;;;;;5053196;28;20504;-63
2022/01/08 06:09:14;;;;;;;49.07;27.37;;;;;;;;;;5055030;28;20433;-63
2022/01/08 06:11:40;;;;;;;45.57;26.57;;;;;;;;;;5053749;28;20236;-64
2022/01/08 06:14:06;;;;;;;44.37;26.77;;;;;;;;;;5058214;28;20429;-63
2022/01/08 06:16:35;;;;;;;51.60;27.60;;;;;;;;;;5063446;28;20182;-64
2022/01/08 06:19:02;;;;;;;52.10;29.20;;;;;;;;;;5066445;28;20443;-65
2022/01/08 06:21:28;;;;;;;50.47;28.77;;;;;;;;;;5066320;28;20416;-64
2022/01/08 06:23:54;;;;;;;52.10;29.40;;;;;;;;;;5064616;28;20508;-64
2022/01/08 06:26:19;;;;;;;49.67;29.43;;;;;;;;;;5056854;28;20232;-63
2022/01/08 06:28:46;;;;;;;48.90;29.23;;;;;;;;;;5072178;28;20187;-63
2022/01/08 06:31:12;;;;;;;50.43;29.50;;;;;;;;;;5067632;28;20188;-63
2022/01/08 06:33:38;;;;;;;45.37;28.03;;;;;;;;;;5055769;28;20433;-63
2022/01/08 06:36:04;;;;;;;45.50;28.47;;;;;;;;;;5053299;28;20438;-63
2022/01/08 06:38:29;;;;;;;50.67;28.93;;;;;;;;;;5053271;28;20179;-63
2022/01/08 06:40:55;;;;;;;54.33;28.13;;;;;;;;;;5053296;28;20428;-63
2022/01/08 06:43:21;;;;;;;51.37;28.73;;;;;;;;;;5054082;28;20246;-62
2022/01/08 06:45:47;;;;;;;49.17;27.43;;;;;;;;;;5054549;28;20176;-63
2022/01/08 06:48:13;;;;;;;48.67;27.13;;;;;;;;;;5054154;28;20534;-63
2022/01/08 06:50:39;;;;;;;47.80;27.87;;;;;;;;;;5052826;28;20616;-63
2022/01/08 06:53:05;;;;;;;49.30;29.00;;;;;;;;;;5052830;28;20226;-63
2022/01/08 06:55:31;;;;;;;45.27;27.60;;;;;;;;;;5053682;28;20179;-63
2022/01/08 06:57:58;;;;;;;37.47;24.23;;;;;;;;;;5053774;28;20232;-63
2022/01/08 07:00:24;;;;;;;37.77;25.80;;;;;;;;;;5053701;28;20534;-63
2022/01/08 07:02:50;;;;;;;43.83;25.83;;;;;;;;;;5054039;28;20487;-62
2022/01/08 07:05:16;;;;;;;52.13;26.37;;;;;;;;;;5053950;28;20775;-63
2022/01/08 07:07:42;;;;;;;45.37;25.33;;;;;;;;;;5053242;28;20541;-63
2022/01/08 07:10:08;;;;;;;48.17;26.10;;;;;;;;;;5053669;28;20281;-63
2022/01/08 07:12:35;;;;;;;45.03;25.93;;;;;;;;;;5053708;28;20202;-63
2022/01/08 07:15:01;;;;;;;39.00;24.07;;;;;;;;;;5052247;28;20424;-63
2022/01/08 07:17:27;;;;;;;44.87;25.33;;;;;;;;;;5053606;28;20421;-63
2022/01/08 07:19:52;;;;;;;46.40;25.37;;;;;;;;;;5053839;28;20181;-63
2022/01/08 07:22:19;;;;;;;48.90;24.50;;;;;;;;;;5052232;28;20205;-63
2022/01/08 07:24:45;;;;;;;63.75;38.47;;;;;;;;;;5051292;28;20777;-63
2022/01/08 07:27:11;;;;;;;51.10;26.30;;;;;;;;;;5052424;28;20658;-63
2022/01/08 07:29:37;;;;;;;47.73;23.90;;;;;;;;;;5056041;28;20416;-63
2022/01/08 07:32:03;;;;;;;48.20;24.80;;;;;;;;;;5056073;28;20500;-63
2022/01/08 07:34:29;;;;;;;47.80;24.83;;;;;;;;;;5056204;28;20425;-63
2022/01/08 07:36:55;;;;;;;47.57;24.63;;;;;;;;;;5057135;28;20413;-63
2022/01/08 07:39:21;;;;;;;42.13;24.87;;;;;;;;;;5057233;28;20261;-63
2022/01/08 07:41:47;;;;;;;42.30;24.77;;;;;;;;;;5055886;28;20506;-63
2022/01/08 07:44:13;;;;;;;52.83;27.23;;;;;;;;;;5057093;28;20213;-63
2022/01/08 07:46:39;;;;;;;52.40;28.33;;;;;;;;;;5057256;28;20171;-63
2022/01/08 07:49:05;;;;;;;64.97;40.65;;;;;;;;;;5055862;28;20385;-63
2022/01/08 07:51:31;;;;;;;58.87;27.73;;;;;;;;;;5055445;28;20290;-63
2022/01/08 07:53:57;;;;;;;42.63;23.03;;;;;;;;;;5055770;28;20436;-63
2022/01/08 07:56:23;;;;;;;44.90;25.77;;;;;;;;;;5057126;28;20205;-62
2022/01/08 07:58:49;;;;;;;46.33;24.43;;;;;;;;;;5057441;28;20217;-64
2022/01/08 08:01:15;;;;;;;42.47;23.17;;;;;;;;;;5056839;28;20193;-63
2022/01/08 08:03:41;;;;;;;46.27;24.47;;;;;;;;;;5056548;28;20215;-63
2022/01/08 08:06:10;;;;;;;45.03;24.70;;;;;;;;;;5056698;28;20485;-64
2022/01/08 08:08:36;;;;;;;44.90;23.43;;;;;;;;;;5056545;28;20210;-64
2022/01/08 08:11:03;;;;;;;51.43;25.57;;;;;;;;;;5055565;28;20751;-63
2022/01/08 08:13:29;;;;;;;46.87;23.47;;;;;;;;;;5056795;28;20209;-63
2022/01/08 08:15:55;;;;;;;52.53;24.37;;;;;;;;;;5055136;28;20422;-63
2022/01/08 08:18:21;;;;;;;43.53;24.10;;;;;;;;;;5058000;28;20219;-63
2022/01/08 08:20:46;;;;;;;39.63;21.93;;;;;;;;;;5057359;28;20537;-64
2022/01/08 08:23:12;;;;;;;47.30;22.83;;;;;;;;;;5055116;28;20246;-63
2022/01/08 08:25:39;;;;;;;50.60;22.20;;;;;;;;;;5055432;28;20183;-63
2022/01/08 08:28:06;;;;;;;48.17;22.97;;;;;;;;;;5056597;28;20185;-64
2022/01/08 08:30:33;;;;;;;53.38;30.92;;;;;;;;;;5053910;28;20735;-64
2022/01/08 08:32:59;;;;;;;45.30;23.43;;;;;;;;;;5055647;28;20195;-64
2022/01/08 08:35:25;;;;;;;43.77;21.53;;;;;;;;;;5057562;28;20486;-64
2022/01/08 08:37:51;;;;;;;37.10;20.97;;;;;;;;;;5056764;28;20417;-64
2022/01/08 08:40:17;;;;;;;52.50;29.70;;;;;;;;;;5059074;28;20877;-63
2022/01/08 08:42:43;;;;;;;48.83;22.17;;;;;;;;;;5060832;28;20218;-64
2022/01/08 08:45:10;;;;;;;35.60;20.10;;;;;;;;;;5063131;28;20925;-64
2022/01/08 08:47:38;;;;;;;40.53;21.57;;;;;;;;;;5063278;28;20406;-64
2022/01/08 08:50:06;;;;;;;49.17;27.43;;;;;;;;;;5058797;28;20933;-63
2022/01/08 08:52:32;;;;;;;40.40;21.43;;;;;;;;;;5058092;28;20459;-64
2022/01/08 08:54:58;;;;;;;40.90;21.93;;;;;;;;;;5056688;28;20417;-63
2022/01/08 08:57:24;;;;;;;39.60;22.10;;;;;;;;;;5074779;28;20198;-66
2022/01/08 08:59:49;;;;;;;43.53;21.83;;;;;;;;;;5072761;28;20183;-65
2022/01/08 09:02:15;;;;;;;47.33;23.40;;;;;;;;;;5067290;28;20712;-63
2022/01/08 09:04:42;;;;;;;41.93;22.10;;;;;;;;;;5062830;28;20638;-65
2022/01/08 09:07:08;;;;;;;37.37;21.07;;;;;;;;;;5064121;28;20177;-65
2022/01/08 09:09:34;;;;;;;42.47;22.50;;;;;;;;;;5061135;28;20833;-62
2022/01/08 09:12:00;;;;;;;47.93;22.60;;;;;;;;;;5061967;28;20249;-64
2022/01/08 09:14:26;;;;;;;43.20;22.67;;;;;;;;;;5057351;28;20448;-64
2022/01/08 09:16:54;;;;;;;44.47;27.02;;;;;;;;;;5053994;28;20478;-64
2022/01/08 09:19:20;;;;;;;34.63;20.40;;;;;;;;;;5056443;28;20571;-64
2022/01/08 09:21:47;;;;;;;33.50;19.60;;;;;;;;;;5055730;28;20182;-64
2022/01/08 09:24:13;;;;;;;37.90;19.90;;;;;;;;;;5055235;28;20210;-64
2022/01/08 09:26:39;;;;;;;38.10;20.43;;;;;;;;;;5067716;28;20928;-64
2022/01/08 09:29:05;;;;;;;31.63;19.27;;;;;;;;;;5074124;28;20423;-65
2022/01/08 09:31:32;;;;;;;35.30;18.17;;;;;;;;;;5056343;28;20500;-63
2022/01/08 09:33:58;;;;;;;32.40;20.20;;;;;;;;;;5054848;28;20732;-64
2022/01/08 09:36:24;;;;;;;33.80;19.33;;;;;;;;;;5055913;28;20413;-63
2022/01/08 09:38:50;;;;;;;28.27;18.03;;;;;;;;;;5055964;28;20416;-64
2022/01/08 09:41:17;;;;;;;32.67;20.23;;;;;;;;;;5055682;28;20413;-65
2022/01/08 09:43:43;;;;;;;42.73;22.67;;;;;;;;;;5053703;28;20465;-64
2022/01/08 09:46:09;;;;;;;37.43;21.20;;;;;;;;;;5054726;28;20439;-64
2022/01/08 09:48:35;;;;;;;41.33;19.97;;;;;;;;;;5053917;28;20901;-64
2022/01/08 09:51:01;;;;;;;34.13;20.33;;;;;;;;;;5054473;28;20469;-64
2022/01/08 09:53:27;;;;;;;37.97;20.13;;;;;;;;;;5055111;28;20723;-63
2022/01/08 09:55:53;;;;;;;38.40;20.77;;;;;;;;;;5055232;28;20183;-62
2022/01/08 09:58:19;;;;;;;38.27;22.17;;;;;;;;;;5055340;28;20413;-63
2022/01/08 10:00:45;;;;;;;37.87;20.13;;;;;;;;;;5054407;28;20188;-63
2022/01/08 10:03:16;;;;;;;51.23;27.43;;;;;;;;;;5055139;28;20484;-63
2022/01/08 10:05:55;;;;;;;47.00;25.60;;;;;;;;;;5053666;28;20960;-64
2022/01/08 10:08:26;;;;;;;48.20;25.77;;;;;;;;;;5054785;28;20428;-63
2022/01/08 10:11:00;;;;;;;37.83;19.00;;;;;;;;;;5055059;28;20466;-63
2022/01/08 10:13:28;;;;;;;30.87;18.37;;;;;;;;;;5071891;22;20504;-64
2022/01/08 10:18:40;;;;;;;35.53;20.03;;;;;;;;;;5034918;28;20174;-65
2022/01/08 10:21:15;;;;;;;35.37;18.97;;;;;;;;;;5034312;28;20417;-65
2022/01/08 10:23:43;;;;;;;34.43;18.97;;;;;;;;;;5034053;28;20491;-65
2022/01/08 10:26:10;;;;;;;31.47;18.33;;;;;;;;;;5033120;28;20452;-65
2022/01/08 10:28:39;;;;;;;34.20;17.83;;;;;;;;;;5032875;28;20179;-65
2022/01/08 10:31:13;;;;;;;32.75;22.48;;;;;;;;;;5031562;28;20425;-65
2022/01/08 10:33:39;;;;;;;27.77;17.10;;;;;;;;;;5034311;28;20218;-64
2022/01/08 10:36:06;;;;;;;28.07;16.17;;;;;;;;;;5034420;28;20179;-65
2022/01/08 10:38:32;;;;;;;26.30;15.50;;;;;;;;;;5034417;28;20179;-65
2022/01/08 10:40:59;;;;;;;31.70;18.03;;;;;;;;;;5034095;28;20921;-65
2022/01/08 10:43:27;;;;;;;34.80;18.60;;;;;;;;;;5033636;28;20218;-66
2022/01/08 10:45:54;;;;;;;33.03;17.53;;;;;;;;;;5034154;28;20175;-65
2022/01/08 10:48:27;;;;;;;31.93;19.57;;;;;;;;;;5032405;28;20763;-65
2022/01/08 10:50:53;;;;;;;32.23;18.17;;;;;;;;;;5033510;28;20832;-65
2022/01/08 10:53:19;;;;;;;26.00;17.90;;;;;;;;;;5033833;28;20195;-65
2022/01/08 10:55:45;;;;;;;31.43;16.67;;;;;;;;;;5032529;28;20186;-65
2022/01/08 10:58:11;;;;;;;24.27;14.83;;;;;;;;;;5033825;28;20185;-64
2022/01/08 11:00:37;;;;;;;23.87;14.47;;;;;;;;;;5032797;28;20237;-64
2022/01/08 11:03:03;;;;;;;23.43;13.50;;;;;;;;;;5034233;28;20219;-64
2022/01/08 11:05:29;;;;;;;23.80;13.13;;;;;;;;;;5037757;28;20662;-65
2022/01/08 11:08:13;;;;;;;20.97;12.20;;;;;;;;;;5038424;28;20183;-65
2022/01/08 11:10:39;;;;;;;24.57;13.27;;;;;;;;;;5038179;28;20205;-65
2022/01/08 11:13:07;;;;;;;22.20;13.10;;;;;;;;;;5037550;28;20205;-65
2022/01/08 11:15:49;;;;;;;27.93;13.07;;;;;;;;;;5037747;28;20190;-65
2022/01/08 11:18:15;;;;;;;22.33;13.17;;;;;;;;;;5038705;28;20162;-65
2022/01/08 11:20:41;;;;;;;22.80;12.83;;;;;;;;;;5036422;28;20652;-65
2022/01/08 11:23:08;;;;;;;20.40;12.23;;;;;;;;;;5037472;28;20675;-65
2022/01/08 11:25:38;;;;;;;19.20;11.93;;;;;;;;;;5038379;28;20204;-64
2022/01/08 11:28:11;;;;;;;21.40;10.80;;;;;;;;;;5043387;28;20185;-65
2022/01/08 11:30:38;;;;;;;18.77;11.03;;;;;;;;;;5051574;28;20195;-65
2022/01/08 11:33:10;;;;;;;20.97;11.90;;;;;;;;;;5048646;28;20441;-65
2022/01/08 11:35:37;;;;;;;16.73;11.10;;;;;;;;;;5052674;28;20178;-65
2022/01/08 11:38:06;;;;;;;18.83;10.00;;;;;;;;;;5043198;28;20175;-65
2022/01/08 11:40:33;;;;;;;18.50;9.97;;;;;;;;;;5038438;28;20413;-65
2022/01/08 11:43:00;;;;;;;19.57;8.73;;;;;;;;;;5036676;28;20203;-65
2022/01/08 11:45:28;;;;;;;14.90;8.60;;;;;;;;;;5038332;28;20412;-65
2022/01/08 11:47:57;;;;;;;17.97;9.80;;;;;;;;;;5036789;28;20179;-64
2022/01/08 11:50:24;;;;;;;16.77;8.47;;;;;;;;;;5037751;28;20501;-64
2022/01/08 11:53:09;;;;;;;15.67;9.50;;;;;;;;;;5036902;28;20183;-65
2022/01/08 11:55:35;;;;;;;15.07;8.83;;;;;;;;;;5039522;28;20182;-67
2022/01/08 11:58:15;;;;;;;11.43;7.30;;;;;;;;;;5039672;28;20175;-65
2022/01/08 12:00:46;;;;;;;9.70;6.57;;;;;;;;;;5040045;28;20179;-65
2022/01/08 12:03:22;;;;;;;12.27;7.13;;;;;;;;;;5041100;28;20246;-64
2022/01/08 12:05:49;;;;;;;8.70;6.17;;;;;;;;;;5039045;28;20167;-64
2022/01/08 12:08:17;;;;;;;10.47;5.40;;;;;;;;;;5038703;28;20179;-64
2022/01/08 12:10:56;;;;;;;10.00;5.17;;;;;;;;;;5037968;28;20556;-65
2022/01/08 12:13:52;;;;;;;8.40;5.03;;;;;;;;;;5039657;28;20679;-64
2022/01/08 12:16:50;;;;;;;10.87;5.10;;;;;;;;;;5022754;28;20198;-65
2022/01/08 12:19:30;;;;;;;7.27;4.70;;;;;;;;;;4984095;28;20199;-65
2022/01/08 12:21:56;;;;;;;8.77;4.73;;;;;;;;;;5038288;28;20183;-65
2022/01/08 12:24:28;;;;;;;7.17;4.80;;;;;;;;;;5037079;28;20211;-64
2022/01/08 12:26:54;;;;;;;8.33;5.17;;;;;;;;;;5037302;28;20179;-65
2022/01/08 12:29:39;;;;;;;10.63;5.20;;;;;;;;;;5037027;28;20182;-65
2022/01/08 12:32:47;;;;;;;10.70;5.20;;;;;;;;;;5038614;28;20252;-65
2022/01/08 12:35:20;;;;;;;10.10;6.00;;;;;;;;;;5036510;28;20241;-65
2022/01/08 12:37:49;;;;;;;7.53;4.33;;;;;;;;;;5036112;28;20561;-65
2022/01/08 12:40:34;;;;;;;9.70;5.30;;;;;;;;;;5036446;28;20183;-65
2022/01/08 12:43:00;;;;;;;13.23;4.50;;;;;;;;;;5036379;28;20597;-65
2022/01/08 12:45:32;;;;;;;8.40;4.47;;;;;;;;;;5036336;28;20179;-65
2022/01/08 12:48:00;;;;;;;9.70;4.77;;;;;;;;;;5036092;28;20218;-65
2022/01/08 12:50:28;;;;;;;9.97;4.83;;;;;;;;;;5034078;28;20218;-65
2022/01/08 12:53:06;;;;;;;10.53;4.40;;;;;;;;;;5034029;28;20285;-65
2022/01/08 12:55:37;;;;;;;7.07;4.27;;;;;;;;;;5035537;28;20183;-65
2022/01/08 12:58:23;;;;;;;6.87;4.10;;;;;;;;;;5035943;28;20253;-65
2022/01/08 13:00:52;;;;;;;6.87;5.03;;;;;;;;;;5035104;28;20705;-65
2022/01/08 13:03:22;;;;;;;7.77;4.77;;;;;;;;;;5035369;28;20234;-65
2022/01/08 13:05:48;;;;;;;9.40;4.80;;;;;;;;;;5035134;28;20179;-65
2022/01/08 13:08:22;;;;;;;8.80;4.37;;;;;;;;;;5033798;28;20606;-65
2022/01/08 13:10:48;;;;;;;5.73;4.17;;;;;;;;;;5033972;28;20578;-65
2022/01/08 13:13:15;;;;;;;7.23;4.13;;;;;;;;;;5035086;28;20280;-65
2022/01/08 13:15:41;;;;;;;8.07;4.47;;;;;;;;;;5033608;28;20201;-64
2022/01/08 13:18:22;;;;;;;10.77;4.20;;;;;;;;;;5033521;28;20183;-64
2022/01/08 13:20:59;;;;;;;11.73;4.63;;;;;;;;;;5033651;28;20182;-64
2022/01/08 13:23:25;;;;;;;15.60;5.20;;;;;;;;;;5033588;28;20298;-64
2022/01/08 13:25:53;;;;;;;8.27;4.03;;;;;;;;;;5034039;28;20171;-64
2022/01/08 13:28:22;;;;;;;9.90;4.50;;;;;;;;;;5035024;28;20632;-64
2022/01/08 13:30:49;;;;;;;8.03;4.00;;;;;;;;;;5034112;28;20186;-64
2022/01/08 13:33:21;;;;;;;6.10;4.93;;;;;;;;;;5034897;28;20206;-64
2022/01/08 13:35:47;;;;;;;10.87;4.00;;;;;;;;;;5035399;28;20167;-64
2022/01/08 13:38:27;;;;;;;12.43;4.50;;;;;;;;;;5034759;28;20182;-64
2022/01/08 13:40:53;;;;;;;7.23;4.03;;;;;;;;;;5035576;28;20178;-64
2022/01/08 13:43:19;;;;;;;6.50;3.73;;;;;;;;;;5034828;28;20211;-64
2022/01/08 13:45:52;;;;;;;7.07;3.80;;;;;;;;;;5033973;28;20212;-64
2022/01/08 13:48:19;;;;;;;11.70;4.47;;;;;;;;;;5033433;28;20402;-65
2022/01/08 13:50:57;;;;;;;10.10;4.53;;;;;;;;;;5033021;28;20175;-66
2022/01/08 13:53:24;;;;;;;6.40;3.50;;;;;;;;;;5034161;28;20219;-65
2022/01/08 13:55:50;;;;;;;7.13;4.10;;;;;;;;;;5034674;28;20186;-64
2022/01/08 13:58:29;;;;;;;8.13;4.50;;;;;;;;;;5034980;28;20265;-64
2022/01/08 14:01:03;;;;;;;11.97;4.33;;;;;;;;;;5032994;28;20225;-64
2022/01/08 14:03:33;;;;;;;10.93;5.17;;;;;;;;;;5034088;28;20215;-64
2022/01/08 14:06:00;;;;;;;9.57;4.80;;;;;;;;;;5033950;28;20179;-64
2022/01/08 14:08:27;;;;;;;10.30;5.67;;;;;;;;;;5034856;28;20187;-64
2022/01/08 14:10:54;;;;;;;9.03;5.13;;;;;;;;;;5036333;28;20175;-64
2022/01/08 14:13:25;;;;;;;10.80;5.63;;;;;;;;;;5034894;28;20291;-64
2022/01/08 14:15:59;;;;;;;10.37;5.37;;;;;;;;;;5035160;28;20179;-64
2022/01/08 14:18:27;;;;;;;10.47;5.60;;;;;;;;;;5036920;28;20206;-64
2022/01/08 14:20:56;;;;;;;10.47;6.07;;;;;;;;;;5037646;28;20179;-64
2022/01/08 14:23:25;;;;;;;14.57;6.77;;;;;;;;;;5038276;28;20203;-64
2022/01/08 14:25:52;;;;;;;13.53;6.73;;;;;;;;;;5038241;28;20229;-64
2022/01/08 14:28:23;;;;;;;12.27;5.93;;;;;;;;;;5037573;28;20181;-64
2022/01/08 14:30:49;;;;;;;10.77;5.90;;;;;;;;;;5036862;28;20917;-64
2022/01/08 14:33:15;;;;;;;11.07;5.97;;;;;;;;;;5036867;28;20219;-64
2022/01/08 14:35:41;;;;;;;13.03;5.53;;;;;;;;;;5037455;28;20182;-64
2022/01/08 14:38:07;;;;;;;8.57;5.20;;;;;;;;;;5037049;28;20179;-64
2022/01/08 14:40:35;;;;;;;8.17;5.37;;;;;;;;;;5038104;28;20233;-65
2022/01/08 14:43:02;;;;;;;10.97;5.03;;;;;;;;;;5037684;28;20206;-64
2022/01/08 14:45:28;;;;;;;9.07;6.17;;;;;;;;;;5036125;28;20440;-64
2022/01/08 14:47:57;;;;;;;7.83;5.20;;;;;;;;;;5036757;28;20183;-64